Time;durP1;ratioP1;P1;durP2;ratioP2;P2;SDS_P1;SDS_P2;PMS_P1;PMS_P2;Temp;Humidity;BMP_temperature;BMP_pressure;BME280_temperature;BME280_humidity;BME280_pressure;Samples;Min_cycle;Max_cycle;Signal;HPM_P1;HPM_P2
2023/11/01 00:02:05;;;;;;;0.95;0.80;;;10.20;97.20;;;;;;5029372;28;20203;-83
2023/11/01 00:04:32;;;;;;;2.38;1.00;;;10.20;97.40;;;;;;5029927;28;20195;-83
2023/11/01 00:06:59;;;;;;;1.48;0.90;;;10.10;97.50;;;;;;5027741;28;20738;-83
2023/11/01 00:09:26;;;;;;;1.92;1.00;;;10.10;97.70;;;;;;5027708;28;20194;-83
2023/11/01 00:11:53;;;;;;;1.45;0.93;;;10.00;97.00;;;;;;5031927;28;20211;-83
2023/11/01 00:14:20;;;;;;;0.93;0.82;;;10.00;97.20;;;;;;5029231;28;20205;-83
2023/11/01 00:16:47;;;;;;;1.00;0.80;;;9.90;97.90;;;;;;5030955;28;20195;-83
2023/11/01 00:19:15;;;;;;;0.80;0.77;;;9.80;98.00;;;;;;5031962;28;20194;-83
2023/11/01 00:21:42;;;;;;;0.98;0.88;;;9.80;98.20;;;;;;5029774;28;20652;-83
2023/11/01 00:24:10;;;;;;;3.03;0.85;;;9.70;98.40;;;;;;5030967;28;20197;-84
2023/11/01 00:26:37;;;;;;;0.60;0.60;;;9.70;98.50;;;;;;5030558;28;20214;-83
2023/11/01 00:29:04;;;;;;;0.93;0.73;;;9.60;98.60;;;;;;5030668;28;20224;-83
2023/11/01 00:31:33;;;;;;;3.28;0.80;;;9.60;98.60;;;;;;5024442;28;20207;-83
2023/11/01 00:34:00;;;;;;;2.35;1.60;;;9.60;99.00;;;;;;5028754;28;20207;-83
2023/11/01 00:36:28;;;;;;;0.85;0.85;;;9.50;98.90;;;;;;5012872;28;20199;-83
2023/11/01 00:38:55;;;;;;;1.23;0.98;;;9.50;98.60;;;;;;5028735;28;20201;-83
2023/11/01 00:41:22;;;;;;;0.80;0.80;;;9.60;98.50;;;;;;5026603;28;20203;-83
2023/11/01 00:43:49;;;;;;;1.45;1.02;;;9.50;98.40;;;;;;5028271;28;20203;-83
2023/11/01 00:46:16;;;;;;;2.75;1.02;;;9.50;98.60;;;;;;5030834;28;20342;-83
2023/11/01 00:48:43;;;;;;;6.88;1.10;;;9.40;98.60;;;;;;5032799;28;20225;-83
2023/11/01 00:51:10;;;;;;;0.82;0.82;;;9.40;98.60;;;;;;5024850;28;20222;-83
2023/11/01 00:53:39;;;;;;;0.85;0.85;;;9.40;98.60;;;;;;5027177;28;20576;-83
2023/11/01 00:56:08;;;;;;;2.17;1.00;;;9.40;98.70;;;;;;5026956;28;20431;-83
2023/11/01 00:58:35;;;;;;;2.45;1.00;;;9.30;98.80;;;;;;5030809;28;20635;-84
2023/11/01 01:01:02;;;;;;;0.98;0.85;;;9.30;98.70;;;;;;5027033;28;20233;-83
2023/11/01 01:03:30;;;;;;;4.20;0.95;;;9.30;98.60;;;;;;5032750;28;20205;-83
2023/11/01 01:05:57;;;;;;;1.67;0.90;;;9.30;98.60;;;;;;5024934;28;20733;-83
2023/11/01 01:08:24;;;;;;;1.40;0.90;;;9.30;98.60;;;;;;5033768;28;20221;-83
2023/11/01 01:10:52;;;;;;;2.00;0.93;;;9.20;98.50;;;;;;5050269;28;20198;-83
2023/11/01 01:13:19;;;;;;;1.48;0.98;;;9.20;98.80;;;;;;5051446;28;20193;-82
2023/11/01 01:15:46;;;;;;;3.95;1.00;;;9.20;99.00;;;;;;5056221;28;20201;-84
2023/11/01 01:18:14;;;;;;;2.67;0.90;;;9.20;98.60;;;;;;5039598;28;20547;-83
2023/11/01 01:20:41;;;;;;;0.90;0.85;;;9.20;98.60;;;;;;5033569;28;20203;-83
2023/11/01 01:23:08;;;;;;;1.65;0.80;;;9.30;98.60;;;;;;5027662;28;20204;-83
2023/11/01 01:25:35;;;;;;;3.80;0.90;;;9.40;98.60;;;;;;5026310;28;20203;-83
2023/11/01 01:28:04;;;;;;;4.03;1.00;;;9.50;98.40;;;;;;5025227;28;20781;-83
2023/11/01 01:30:31;;;;;;;1.08;0.98;;;9.50;97.60;;;;;;5029019;28;20191;-83
2023/11/01 01:32:57;;;;;;;2.63;1.00;;;9.60;97.20;;;;;;5029508;28;20202;-83
2023/11/01 01:35:24;;;;;;;2.17;1.02;;;9.60;97.30;;;;;;5021610;28;20202;-83
2023/11/01 01:37:53;;;;;;;3.67;1.23;;;9.50;97.20;;;;;;5026959;28;20191;-83
2023/11/01 01:40:20;;;;;;;1.85;1.05;;;9.50;97.20;;;;;;5027700;28;20281;-83
2023/11/01 01:42:47;;;;;;;1.75;1.10;;;9.40;97.40;;;;;;5023382;28;20221;-83
2023/11/01 01:45:17;;;;;;;1.52;0.85;;;9.40;97.20;;;;;;5027121;28;20198;-83
2023/11/01 01:47:44;;;;;;;2.30;1.05;;;9.40;97.10;;;;;;5024785;28;20521;-83
2023/11/01 01:50:14;;;;;;;1.67;1.00;;;9.30;97.10;;;;;;5028236;28;20192;-83
2023/11/01 01:52:42;;;;;;;0.82;0.80;;;9.40;96.80;;;;;;5029240;28;20218;-83
2023/11/01 01:55:10;;;;;;;0.73;0.73;;;9.50;96.00;;;;;;5024603;28;20744;-84
2023/11/01 01:57:37;;;;;;;2.05;1.20;;;9.40;96.70;;;;;;5011664;28;20248;-83
2023/11/01 02:00:07;;;;;;;1.33;0.73;;;9.30;97.00;;;;;;5026283;28;20199;-83
2023/11/01 02:02:36;;;;;;;1.25;1.00;;;9.30;97.00;;;;;;5026289;28;20203;-82
2023/11/01 02:05:06;;;;;;;1.52;1.10;;;9.30;97.20;;;;;;5024916;28;20199;-82
2023/11/01 02:07:33;;;;;;;1.83;0.98;;;9.30;97.30;;;;;;5024789;28;20244;-83
2023/11/01 02:10:00;;;;;;;1.58;0.85;;;9.30;97.30;;;;;;5026005;28;20221;-83
2023/11/01 02:12:27;;;;;;;3.80;1.13;;;9.40;97.30;;;;;;5025923;28;20603;-83
2023/11/01 02:14:54;;;;;;;1.35;0.90;;;9.40;97.60;;;;;;5029696;28;20191;-83
2023/11/01 02:17:20;;;;;;;1.38;0.90;;;9.30;97.70;;;;;;5023236;28;20209;-83
2023/11/01 02:19:49;;;;;;;1.50;1.20;;;9.30;98.00;;;;;;5023331;28;20531;-83
2023/11/01 02:22:16;;;;;;;1.10;1.00;;;9.20;97.60;;;;;;5026661;28;20202;-83
2023/11/01 02:24:44;;;;;;;2.10;1.00;;;9.30;97.80;;;;;;5027613;28;20645;-83
2023/11/01 02:27:12;;;;;;;1.75;0.93;;;9.30;98.00;;;;;;5028891;28;20608;-83
2023/11/01 02:29:38;;;;;;;1.33;0.95;;;9.30;98.10;;;;;;5028547;28;20737;-83
2023/11/01 02:32:08;;;;;;;0.60;0.60;;;9.30;98.10;;;;;;5029992;28;20191;-83
2023/11/01 02:34:35;;;;;;;2.03;0.90;;;9.30;98.10;;;;;;5027562;28;20191;-83
2023/11/01 02:37:02;;;;;;;3.67;0.90;;;9.20;97.80;;;;;;5028142;28;20285;-83
2023/11/01 02:39:29;;;;;;;1.92;0.93;;;9.20;98.10;;;;;;5028771;28;20207;-83
2023/11/01 02:41:57;;;;;;;2.30;0.90;;;9.20;98.10;;;;;;5027043;28;20203;-83
2023/11/01 02:44:24;;;;;;;2.17;1.00;;;9.30;97.70;;;;;;5026578;28;20190;-83
2023/11/01 02:46:51;;;;;;;2.58;1.20;;;9.30;97.50;;;;;;5023448;28;20203;-83
2023/11/01 02:49:18;;;;;;;1.45;0.75;;;9.30;97.30;;;;;;5028862;28;20245;-83
2023/11/01 02:51:45;;;;;;;1.50;1.00;;;9.20;97.10;;;;;;5029805;28;20211;-83
2023/11/01 02:54:12;;;;;;;1.23;0.80;;;9.10;97.30;;;;;;5032837;28;20628;-83
2023/11/01 02:56:41;;;;;;;2.20;0.93;;;9.10;97.80;;;;;;5030549;28;20194;-83
2023/11/01 02:59:10;;;;;;;1.05;0.73;;;8.90;98.50;;;;;;5028112;28;20195;-83
2023/11/01 03:01:37;;;;;;;2.85;0.93;;;8.90;98.50;;;;;;5033856;28;20198;-83
2023/11/01 03:04:04;;;;;;;0.93;0.65;;;8.80;98.40;;;;;;5029431;28;20198;-83
2023/11/01 03:06:31;;;;;;;1.55;1.40;;;8.70;98.60;;;;;;5031117;28;20623;-83
2023/11/01 03:08:58;;;;;;;2.33;1.08;;;8.70;98.80;;;;;;5031468;28;20214;-83
2023/11/01 03:11:25;;;;;;;1.00;0.95;;;8.50;98.80;;;;;;5030109;28;20209;-83
2023/11/01 03:13:52;;;;;;;1.95;1.00;;;8.40;99.00;;;;;;5031037;28;20190;-83
2023/11/01 03:16:20;;;;;;;2.92;0.90;;;8.40;99.10;;;;;;5031169;28;20488;-83
2023/11/01 03:18:47;;;;;;;1.85;0.85;;;8.30;99.40;;;;;;5024911;28;20206;-83
2023/11/01 03:21:14;;;;;;;1.55;0.70;;;8.20;99.40;;;;;;5023760;28;20635;-83
2023/11/01 03:23:40;;;;;;;2.25;0.95;;;8.20;99.80;;;;;;5032508;28;20190;-82
2023/11/01 03:26:09;;;;;;;3.08;1.10;;;8.10;99.80;;;;;;5032339;28;20203;-83
2023/11/01 03:28:35;;;;;;;0.88;0.88;;;8.00;99.70;;;;;;5030133;28;20640;-83
2023/11/01 03:31:02;;;;;;;1.15;0.70;;;8.00;99.80;;;;;;5028715;28;20194;-83
2023/11/01 03:33:30;;;;;;;1.05;0.88;;;7.90;99.90;;;;;;5031698;28;20190;-83
2023/11/01 03:35:57;;;;;;;1.33;1.23;;;7.90;99.90;;;;;;5032168;28;20206;-84
2023/11/01 03:38:24;;;;;;;1.17;0.90;;;7.80;99.90;;;;;;5032156;28;20202;-83
2023/11/01 03:40:51;;;;;;;0.98;0.90;;;7.80;99.90;;;;;;5032388;28;20198;-83
2023/11/01 03:43:18;;;;;;;0.95;0.80;;;7.80;99.90;;;;;;5031315;28;20202;-83
2023/11/01 03:45:45;;;;;;;1.75;0.95;;;7.70;99.90;;;;;;5031874;28;20206;-83
2023/11/01 03:48:12;;;;;;;3.70;1.05;;;7.60;99.90;;;;;;5029105;28;20202;-83
2023/11/01 03:50:40;;;;;;;2.78;1.02;;;7.70;99.90;;;;;;5027451;28;20570;-83
2023/11/01 03:53:08;;;;;;;1.92;1.20;;;7.70;99.90;;;;;;5030803;28;20199;-83
2023/11/01 03:55:34;;;;;;;2.45;1.30;;;7.70;99.90;;;;;;5030578;28;20195;-83
2023/11/01 03:58:01;;;;;;;1.20;1.10;;;7.60;99.90;;;;;;5028261;28;20190;-83
2023/11/01 04:00:28;;;;;;;1.60;1.38;;;7.60;99.90;;;;;;5027775;28;20213;-83
2023/11/01 04:02:55;;;;;;;1.65;1.00;;;7.60;99.90;;;;;;5028894;28;20187;-83
2023/11/01 04:05:22;;;;;;;1.45;1.17;;;7.50;99.90;;;;;;5031760;28;20194;-83
2023/11/01 04:07:50;;;;;;;3.08;1.13;;;7.40;99.90;;;;;;5027851;28;20554;-83
2023/11/01 04:10:17;;;;;;;1.02;0.93;;;7.30;99.90;;;;;;5031769;28;20226;-83
2023/11/01 04:12:44;;;;;;;0.98;0.98;;;7.30;99.90;;;;;;5030509;28;20198;-83
2023/11/01 04:15:12;;;;;;;0.88;0.80;;;7.30;99.90;;;;;;5028473;28;20191;-83
2023/11/01 04:17:39;;;;;;;1.25;1.05;;;7.20;99.90;;;;;;5028075;28;20277;-83
2023/11/01 04:20:08;;;;;;;1.05;0.90;;;7.20;99.90;;;;;;5028315;28;20194;-82
2023/11/01 04:22:36;;;;;;;1.58;0.95;;;7.10;99.90;;;;;;5029832;28;20210;-83
2023/11/01 04:25:06;;;;;;;1.92;1.00;;;7.10;99.90;;;;;;5024459;28;20214;-83
2023/11/01 04:27:34;;;;;;;0.88;0.88;;;7.20;99.90;;;;;;5033528;28;20195;-83
2023/11/01 04:30:04;;;;;;;3.00;0.93;;;7.10;99.90;;;;;;5027462;28;20265;-83
2023/11/01 04:32:30;;;;;;;5.00;1.23;;;7.00;99.90;;;;;;5028884;28;20198;-83
2023/11/01 04:34:57;;;;;;;1.73;1.00;;;6.90;99.90;;;;;;5027234;28;20194;-83
2023/11/01 04:37:24;;;;;;;1.48;1.10;;;6.90;99.90;;;;;;5028368;28;20218;-83
2023/11/01 04:39:51;;;;;;;1.30;1.10;;;6.80;99.90;;;;;;5034921;28;20713;-83
2023/11/01 04:42:19;;;;;;;2.28;0.80;;;6.80;99.90;;;;;;5029480;28;20992;-83
2023/11/01 04:44:46;;;;;;;0.75;0.75;;;6.80;99.90;;;;;;5028997;28;20191;-83
2023/11/01 04:47:13;;;;;;;1.50;0.77;;;6.80;99.90;;;;;;5029859;28;20547;-83
2023/11/01 04:49:40;;;;;;;0.80;0.80;;;6.80;99.90;;;;;;5027842;28;20233;-83
2023/11/01 04:52:07;;;;;;;3.20;0.80;;;6.80;99.90;;;;;;5026886;28;20218;-83
2023/11/01 04:54:34;;;;;;;0.93;0.80;;;6.80;99.90;;;;;;5029143;28;20213;-83
2023/11/01 04:57:01;;;;;;;0.90;0.75;;;6.70;99.90;;;;;;5028905;28;20199;-83
2023/11/01 04:59:30;;;;;;;1.13;0.80;;;6.70;99.90;;;;;;5025390;28;20667;-83
2023/11/01 05:01:57;;;;;;;2.03;0.80;;;6.70;99.90;;;;;;5028089;28;20197;-83
2023/11/01 05:04:24;;;;;;;0.70;0.70;;;6.60;99.90;;;;;;5026259;28;20225;-83
2023/11/01 05:06:51;;;;;;;0.90;0.90;;;6.60;99.90;;;;;;5026890;28;20201;-83
2023/11/01 05:09:18;;;;;;;0.75;0.75;;;6.60;99.90;;;;;;5031874;28;20800;-83
2023/11/01 05:11:47;;;;;;;1.17;0.70;;;6.70;99.90;;;;;;5030450;28;20195;-83
2023/11/01 05:14:14;;;;;;;1.25;0.80;;;6.80;99.90;;;;;;5029507;28;20888;-83
2023/11/01 05:16:42;;;;;;;1.17;0.70;;;6.80;99.90;;;;;;5030715;28;20190;-83
2023/11/01 05:19:09;;;;;;;0.80;0.80;;;6.80;99.90;;;;;;5028267;28;20202;-83
2023/11/01 05:21:37;;;;;;;1.25;0.70;;;6.80;99.90;;;;;;5031813;28;20195;-83
2023/11/01 05:24:04;;;;;;;1.40;0.57;;;6.70;99.90;;;;;;5028749;28;20195;-83
2023/11/01 05:26:34;;;;;;;1.70;0.60;;;6.60;99.90;;;;;;5027040;28;20214;-82
2023/11/01 05:29:01;;;;;;;0.70;0.70;;;6.60;99.90;;;;;;5028472;28;20343;-83
2023/11/01 05:31:28;;;;;;;0.60;0.60;;;6.60;99.90;;;;;;5027302;28;20225;-83
2023/11/01 05:33:57;;;;;;;1.00;0.93;;;6.50;99.90;;;;;;5034587;28;20194;-82
2023/11/01 05:36:24;;;;;;;2.90;0.70;;;6.50;99.90;;;;;;5029049;28;20194;-83
2023/11/01 05:38:51;;;;;;;0.68;0.60;;;6.50;99.90;;;;;;5026306;28;20197;-83
2023/11/01 05:41:18;;;;;;;3.58;0.80;;;6.50;99.90;;;;;;5030019;28;20203;-82
2023/11/01 05:43:45;;;;;;;2.22;0.93;;;6.50;99.90;;;;;;5028237;28;20214;-83
2023/11/01 05:46:12;;;;;;;1.60;0.90;;;6.50;99.90;;;;;;5030121;28;20194;-83
2023/11/01 05:48:38;;;;;;;3.22;0.80;;;6.50;99.90;;;;;;5033155;28;20202;-83
2023/11/01 05:51:08;;;;;;;1.05;0.70;;;6.50;99.90;;;;;;5030120;28;20230;-83
2023/11/01 05:53:35;;;;;;;0.93;0.93;;;6.40;99.90;;;;;;5028123;28;20551;-83
2023/11/01 05:56:02;;;;;;;0.80;0.77;;;6.40;99.90;;;;;;5028218;28;20947;-83
2023/11/01 05:58:29;;;;;;;1.23;0.70;;;6.30;99.90;;;;;;5020515;28;20202;-83
2023/11/01 06:00:56;;;;;;;0.70;0.70;;;6.30;99.90;;;;;;5023708;28;20191;-83
2023/11/01 06:03:25;;;;;;;2.15;0.70;;;6.30;99.90;;;;;;5017508;28;20900;-83
2023/11/01 06:05:57;;;;;;;1.10;0.80;;;6.20;99.90;;;;;;5029199;28;20202;-83
2023/11/01 06:08:26;;;;;;;2.03;1.10;;;6.20;99.90;;;;;;5028832;28;20198;-82
2023/11/01 06:10:54;;;;;;;1.05;0.90;;;6.20;99.90;;;;;;5027265;28;20214;-83
2023/11/01 06:13:21;;;;;;;0.65;0.65;;;6.10;99.90;;;;;;5030271;28;20210;-83
2023/11/01 06:15:49;;;;;;;0.97;0.80;;;6.10;99.90;;;;;;5029748;28;20241;-83
2023/11/01 06:18:17;;;;;;;1.07;0.80;;;6.20;99.90;;;;;;5027778;28;20217;-83
2023/11/01 06:20:44;;;;;;;0.90;0.90;;;6.20;99.90;;;;;;5024887;28;20257;-83
2023/11/01 06:23:11;;;;;;;0.93;0.70;;;6.20;99.90;;;;;;5029139;28;20186;-83
2023/11/01 06:25:39;;;;;;;1.23;0.70;;;6.30;99.90;;;;;;5022265;28;20560;-82
2023/11/01 06:28:08;;;;;;;0.75;0.75;;;6.40;99.90;;;;;;5033204;28;20526;-83
2023/11/01 06:30:35;;;;;;;0.70;0.70;;;6.40;99.90;;;;;;5027255;28;20272;-83
2023/11/01 06:33:01;;;;;;;1.73;0.60;;;6.40;99.90;;;;;;5029992;28;20206;-83
2023/11/01 06:35:28;;;;;;;0.80;0.80;;;6.40;99.90;;;;;;5025111;28;20209;-83
2023/11/01 06:37:55;;;;;;;1.10;1.03;;;6.50;99.90;;;;;;5023540;28;20191;-83
2023/11/01 06:40:22;;;;;;;0.90;0.90;;;6.70;99.90;;;;;;5028850;28;20240;-82
2023/11/01 06:42:51;;;;;;;0.80;0.80;;;6.70;99.90;;;;;;5032159;28;20298;-82
2023/11/01 06:45:18;;;;;;;0.93;0.70;;;6.80;99.90;;;;;;5029525;28;20285;-82
2023/11/01 06:47:44;;;;;;;1.17;0.90;;;6.80;99.90;;;;;;5032082;28;20562;-83
2023/11/01 06:50:11;;;;;;;1.50;0.77;;;6.80;99.90;;;;;;5028676;28;20214;-83
2023/11/01 06:52:39;;;;;;;0.73;0.68;;;6.90;99.90;;;;;;5029122;28;20231;-82
2023/11/01 06:55:07;;;;;;;1.05;0.90;;;6.90;99.90;;;;;;5032404;28;20194;-83
2023/11/01 06:57:33;;;;;;;1.73;0.70;;;6.90;99.90;;;;;;5022802;28;20195;-82
2023/11/01 07:00:03;;;;;;;1.65;0.80;;;6.90;99.90;;;;;;5025751;28;20203;-83
2023/11/01 07:02:30;;;;;;;2.45;1.05;;;7.00;99.90;;;;;;5026632;28;20207;-82
2023/11/01 07:04:57;;;;;;;1.38;1.27;;;7.00;99.90;;;;;;5028512;28;20194;-83
2023/11/01 07:07:24;;;;;;;2.53;0.93;;;7.10;99.90;;;;;;5027312;28;20563;-82
2023/11/01 07:09:51;;;;;;;2.15;1.42;;;7.20;99.80;;;;;;5027377;28;20573;-83
2023/11/01 07:12:21;;;;;;;1.10;1.00;;;7.40;99.70;;;;;;5032436;28;20202;-83
2023/11/01 07:14:48;;;;;;;1.98;1.00;;;7.40;99.20;;;;;;5021526;28;20193;-83
2023/11/01 07:17:17;;;;;;;0.82;0.82;;;7.50;98.60;;;;;;5031684;28;20818;-83
2023/11/01 07:19:43;;;;;;;1.73;1.00;;;7.50;98.80;;;;;;5028650;28;20210;-84
2023/11/01 07:22:11;;;;;;;1.60;1.50;;;7.60;98.60;;;;;;5022039;28;20214;-83
2023/11/01 07:24:37;;;;;;;2.40;1.92;;;7.60;99.00;;;;;;5030911;28;20694;-83
2023/11/01 07:27:04;;;;;;;0.95;0.95;;;7.70;98.60;;;;;;5030881;28;20542;-84
2023/11/01 07:29:31;;;;;;;1.08;1.02;;;7.70;98.60;;;;;;5032391;28;20198;-83
2023/11/01 07:31:58;;;;;;;2.50;1.10;;;7.80;98.30;;;;;;5034566;28;20655;-84
2023/11/01 07:34:26;;;;;;;1.60;1.00;;;7.90;98.40;;;;;;5033805;28;20195;-84
2023/11/01 07:36:53;;;;;;;1.27;0.90;;;8.00;98.30;;;;;;5028274;28;20191;-84
2023/11/01 07:39:20;;;;;;;1.00;1.00;;;8.10;98.30;;;;;;5032101;28;20206;-83
2023/11/01 07:41:47;;;;;;;1.00;1.00;;;8.10;98.30;;;;;;5023728;28;20199;-84
2023/11/01 07:44:14;;;;;;;3.75;0.93;;;8.20;97.60;;;;;;5030383;28;20206;-91
2023/11/01 07:46:41;;;;;;;0.95;0.90;;;8.40;97.50;;;;;;5018305;28;20195;-84
2023/11/01 07:49:08;;;;;;;0.82;0.80;;;8.50;97.20;;;;;;5033147;28;20202;-84
2023/11/01 07:51:36;;;;;;;0.80;0.80;;;8.50;97.60;;;;;;5028993;28;20225;-84
2023/11/01 07:54:03;;;;;;;2.58;0.80;;;8.60;97.70;;;;;;5039668;28;20197;-83
2023/11/01 07:56:30;;;;;;;1.08;0.90;;;8.70;96.50;;;;;;5020316;28;20281;-85
2023/11/01 07:58:58;;;;;;;0.70;0.70;;;8.80;96.70;;;;;;5031048;28;20206;-84
2023/11/01 08:01:25;;;;;;;0.70;0.70;;;8.80;95.90;;;;;;5025788;28;20589;-84
2023/11/01 08:03:51;;;;;;;1.23;1.00;;;8.80;95.90;;;;;;5029602;28;20590;-83
2023/11/01 08:06:18;;;;;;;0.70;0.70;;;8.90;96.10;;;;;;5035146;28;20193;-83
2023/11/01 08:08:47;;;;;;;1.10;1.00;;;9.00;95.90;;;;;;5032463;28;20214;-84
2023/11/01 08:11:13;;;;;;;1.08;0.98;;;9.20;95.60;;;;;;5031479;28;20305;-86
2023/11/01 08:13:41;;;;;;;2.58;0.90;;;9.30;96.00;;;;;;5031651;28;20210;-85
2023/11/01 08:16:08;;;;;;;1.58;1.27;;;9.40;95.30;;;;;;5026986;28;20191;-85
2023/11/01 08:18:37;;;;;;;5.10;3.75;;;9.60;94.70;;;;;;5025120;28;20920;-85
2023/11/01 08:21:05;;;;;;;1.10;1.02;;;9.70;94.10;;;;;;5026801;28;20203;-85
2023/11/01 08:23:32;;;;;;;1.13;0.90;;;9.90;93.30;;;;;;5030539;28;20684;-86
2023/11/01 08:26:00;;;;;;;1.48;0.85;;;10.00;92.60;;;;;;5026834;28;20217;-84
2023/11/01 08:28:27;;;;;;;0.75;0.75;;;10.10;92.60;;;;;;5028174;28;20202;-84
2023/11/01 08:30:54;;;;;;;0.82;0.82;;;10.20;93.10;;;;;;5030585;28;20584;-84
2023/11/01 08:33:20;;;;;;;0.98;0.73;;;10.40;93.10;;;;;;5030762;28;20650;-86
2023/11/01 08:35:47;;;;;;;0.98;0.70;;;10.50;90.70;;;;;;5029056;28;20213;-84
2023/11/01 08:38:14;;;;;;;1.25;1.15;;;10.80;91.90;;;;;;5024422;28;20211;-84
2023/11/01 08:40:42;;;;;;;0.68;0.68;;;11.20;90.60;;;;;;5026749;28;20194;-84
2023/11/01 08:43:10;;;;;;;0.90;0.88;;;11.50;85.10;;;;;;5029866;28;20672;-84
2023/11/01 08:45:37;;;;;;;0.63;0.63;;;11.60;84.50;;;;;;5028513;28;20198;-84
2023/11/01 08:48:05;;;;;;;1.27;1.10;;;11.80;86.50;;;;;;5027064;28;20206;-86
2023/11/01 08:50:32;;;;;;;1.63;1.40;;;12.30;81.90;;;;;;5031487;28;20222;-86
2023/11/01 08:52:59;;;;;;;1.02;0.93;;;12.60;75.60;;;;;;5030146;28;20202;-88
2023/11/01 08:55:25;;;;;;;0.60;0.60;;;13.00;77.10;;;;;;5031723;28;20195;-84
2023/11/01 08:57:53;;;;;;;0.95;0.70;;;13.50;69.30;;;;;;5029291;28;20543;-85
2023/11/01 09:00:21;;;;;;;0.75;0.75;;;14.50;60.00;;;;;;5031466;28;20204;-86
2023/11/01 09:02:49;;;;;;;0.82;0.80;;;15.90;34.10;;;;;;5031089;28;20229;-87
2023/11/01 09:05:16;;;;;;;1.48;1.35;;;16.70;34.00;;;;;;5028275;28;20883;-90
2023/11/01 09:07:43;;;;;;;3.20;2.30;;;17.60;28.40;;;;;;5026285;28;20225;-88
2023/11/01 09:10:10;;;;;;;0.95;0.95;;;18.50;20.20;;;;;;5026069;28;20194;-83
2023/11/01 09:12:37;;;;;;;1.30;0.90;;;19.50;18.90;;;;;;5030687;28;20202;-85
2023/11/01 09:15:05;;;;;;;1.00;0.90;;;19.00;15.60;;;;;;5031403;28;20213;-85
2023/11/01 09:17:33;;;;;;;0.90;0.90;;;18.90;16.20;;;;;;5030532;28;20206;-86
2023/11/01 09:20:00;;;;;;;0.80;0.80;;;18.50;16.80;;;;;;5034327;28;20206;-85
2023/11/01 09:22:29;;;;;;;2.35;2.00;;;18.70;16.20;;;;;;5035359;28;20222;-86
2023/11/01 09:24:55;;;;;;;0.90;0.90;;;19.50;16.90;;;;;;5010740;28;20265;-82
2023/11/01 09:27:22;;;;;;;1.30;0.90;;;20.10;15.40;;;;;;5034054;28;20197;-85
2023/11/01 09:29:49;;;;;;;1.83;1.73;;;20.80;13.60;;;;;;5034459;28;20540;-85
2023/11/01 09:32:16;;;;;;;1.83;1.30;;;21.10;13.60;;;;;;5036064;28;20218;-85
2023/11/01 09:34:45;;;;;;;1.20;1.10;;;21.00;11.70;;;;;;5033621;28;20729;-86
2023/11/01 09:37:12;;;;;;;1.30;1.20;;;21.20;13.10;;;;;;5034665;28;20209;-85
2023/11/01 09:39:39;;;;;;;1.13;0.88;;;21.60;12.00;;;;;;5029740;28;20193;-85
2023/11/01 09:42:13;;;;;;;2.10;1.92;;;21.80;10.70;;;;;;5031945;28;20216;-84
2023/11/01 09:44:40;;;;;;;0.77;0.77;;;21.90;10.50;;;;;;5036688;28;20193;-83
2023/11/01 09:47:07;;;;;;;2.05;1.10;;;20.10;11.10;;;;;;5031595;28;20190;-83
2023/11/01 09:49:35;;;;;;;2.03;1.10;;;19.70;12.70;;;;;;5038505;28;20202;-83
2023/11/01 09:52:04;;;;;;;1.60;1.08;;;19.70;12.40;;;;;;5028890;28;20226;-82
2023/11/01 09:54:31;;;;;;;1.58;1.20;;;19.70;13.60;;;;;;5030921;28;20620;-87
2023/11/01 09:57:03;;;;;;;1.02;0.93;;;20.70;11.40;;;;;;5031954;28;20277;-88
2023/11/01 09:59:32;;;;;;;1.10;1.00;;;21.30;11.80;;;;;;5032566;28;20225;-87
2023/11/01 10:02:00;;;;;;;1.13;1.05;;;21.20;11.70;;;;;;5031737;28;20190;-87
2023/11/01 10:04:29;;;;;;;1.27;1.17;;;21.00;11.60;;;;;;5030705;28;20241;-85
2023/11/01 10:06:56;;;;;;;1.95;0.93;;;19.90;12.20;;;;;;5026729;28;20636;-85
